Connexion S'enregistrer

Connexion à votre compte

Identifiant
Mot de passe
Maintenir la connexion active sur ce site

Créer un compte

Pour valider ce formulaire, vous devez remplir tous les champs.
Nom
Identifiant
Mot de passe
Répétez le mot de passe
Adresse e-mail
Répétez l'adresse e-mail

Les inscriptions au BIA pour l'année 2017-2018 sont possibles dès à présent. Rendez-vous dans la rubrique "Ecole de pilotage-BIA".

Attention, nombre de places limité!

                                                                                          BIA 2

Nous contacter

 Téléphone : +33 (0)4 79 54 41 81

Coordonnées détaillées et accès : cliquez ici

 
LFLB °C
    Ferienhaus Ostsee
[source: ADDS]
METAR
LFLB 221500Z AUTO VRB02KT CAVOK 21/13 Q1020 NOSIG =
TAF
TAF LFLB 221100Z 2212/2312 VRB03KT CAVOK =
SR / SS: 05:24 / 17:33 UTC (Lever/Coucher du soleil le 2017-09-22)
JSN Boot template designed by JoomlaShine.com